sensor_id;sensor_type;location;lat;lon;timestamp;P1;durP1;ratioP1;P2;durP2;ratioP2
14205;SDS011;7186;48.800;9.216;2023-03-30T00:02:02;6.07;;;2.67;;
14205;SDS011;7186;48.800;9.216;2023-03-30T00:04:28;5.93;;;2.17;;
14205;SDS011;7186;48.800;9.216;2023-03-30T00:06:53;8.30;;;2.50;;
14205;SDS011;7186;48.800;9.216;2023-03-30T00:09:18;10.17;;;2.27;;
14205;SDS011;7186;48.800;9.216;2023-03-30T00:11:44;6.93;;;2.33;;
14205;SDS011;7186;48.800;9.216;2023-03-30T00:14:09;6.57;;;2.53;;
14205;SDS011;7186;48.800;9.216;2023-03-30T00:16:35;8.60;;;2.70;;
14205;SDS011;7186;48.800;9.216;2023-03-30T00:19:01;10.23;;;3.07;;
14205;SDS011;7186;48.800;9.216;2023-03-30T00:21:26;6.13;;;2.40;;
14205;SDS011;7186;48.800;9.216;2023-03-30T00:23:52;7.77;;;2.50;;
14205;SDS011;7186;48.800;9.216;2023-03-30T00:26:17;7.63;;;2.33;;
14205;SDS011;7186;48.800;9.216;2023-03-30T00:28:42;7.83;;;2.47;;
14205;SDS011;7186;48.800;9.216;2023-03-30T00:31:07;8.37;;;2.70;;
14205;SDS011;7186;48.800;9.216;2023-03-30T00:33:35;8.50;;;2.37;;
14205;SDS011;7186;48.800;9.216;2023-03-30T00:36:00;13.70;;;3.20;;
14205;SDS011;7186;48.800;9.216;2023-03-30T00:38:25;6.40;;;2.83;;
14205;SDS011;7186;48.800;9.216;2023-03-30T00:40:51;12.67;;;2.73;;
14205;SDS011;7186;48.800;9.216;2023-03-30T00:43:17;6.27;;;2.33;;
14205;SDS011;7186;48.800;9.216;2023-03-30T00:45:42;9.03;;;2.67;;
14205;SDS011;7186;48.800;9.216;2023-03-30T00:50:50;12.20;;;2.90;;
14205;SDS011;7186;48.800;9.216;2023-03-30T00:53:20;8.10;;;2.30;;
14205;SDS011;7186;48.800;9.216;2023-03-30T00:55:47;6.43;;;2.50;;
14205;SDS011;7186;48.800;9.216;2023-03-30T00:58:13;8.67;;;2.80;;
14205;SDS011;7186;48.800;9.216;2023-03-30T01:00:39;12.77;;;2.80;;
14205;SDS011;7186;48.800;9.216;2023-03-30T01:03:09;11.83;;;3.00;;
14205;SDS011;7186;48.800;9.216;2023-03-30T01:05:36;10.53;;;2.60;;
14205;SDS011;7186;48.800;9.216;2023-03-30T01:08:02;8.13;;;2.70;;
14205;SDS011;7186;48.800;9.216;2023-03-30T01:10:31;7.53;;;2.77;;
14205;SDS011;7186;48.800;9.216;2023-03-30T01:12:56;11.53;;;2.60;;
14205;SDS011;7186;48.800;9.216;2023-03-30T01:15:21;9.23;;;3.13;;
14205;SDS011;7186;48.800;9.216;2023-03-30T01:20:25;16.60;;;3.10;;
14205;SDS011;7186;48.800;9.216;2023-03-30T01:25:43;8.57;;;2.67;;
14205;SDS011;7186;48.800;9.216;2023-03-30T01:36:36;14.57;;;2.80;;
14205;SDS011;7186;48.800;9.216;2023-03-30T01:46:56;10.87;;;3.03;;
14205;SDS011;7186;48.800;9.216;2023-03-30T01:49:26;13.07;;;3.13;;
14205;SDS011;7186;48.800;9.216;2023-03-30T01:54:38;11.53;;;2.57;;
14205;SDS011;7186;48.800;9.216;2023-03-30T01:57:13;9.83;;;3.20;;
14205;SDS011;7186;48.800;9.216;2023-03-30T01:59:41;10.03;;;3.13;;
14205;SDS011;7186;48.800;9.216;2023-03-30T02:02:08;9.80;;;2.87;;
14205;SDS011;7186;48.800;9.216;2023-03-30T02:04:35;8.20;;;2.73;;
14205;SDS011;7186;48.800;9.216;2023-03-30T02:07:07;10.40;;;3.50;;
14205;SDS011;7186;48.800;9.216;2023-03-30T02:09:34;12.37;;;2.90;;
14205;SDS011;7186;48.800;9.216;2023-03-30T02:12:01;15.47;;;3.20;;
14205;SDS011;7186;48.800;9.216;2023-03-30T02:14:28;13.17;;;3.33;;
14205;SDS011;7186;48.800;9.216;2023-03-30T02:16:56;11.33;;;2.60;;
14205;SDS011;7186;48.800;9.216;2023-03-30T02:19:24;7.60;;;2.50;;
14205;SDS011;7186;48.800;9.216;2023-03-30T02:21:49;8.13;;;2.67;;
14205;SDS011;7186;48.800;9.216;2023-03-30T02:24:16;11.47;;;2.70;;
14205;SDS011;7186;48.800;9.216;2023-03-30T02:26:51;13.87;;;3.73;;
14205;SDS011;7186;48.800;9.216;2023-03-30T02:29:18;13.10;;;2.63;;
14205;SDS011;7186;48.800;9.216;2023-03-30T02:31:44;11.67;;;2.80;;
14205;SDS011;7186;48.800;9.216;2023-03-30T02:34:18;7.80;;;2.83;;
14205;SDS011;7186;48.800;9.216;2023-03-30T02:39:57;7.50;;;2.57;;
14205;SDS011;7186;48.800;9.216;2023-03-30T02:45:08;14.17;;;2.70;;
14205;SDS011;7186;48.800;9.216;2023-03-30T02:47:58;6.07;;;2.53;;
14205;SDS011;7186;48.800;9.216;2023-03-30T02:53:08;12.53;;;2.97;;
14205;SDS011;7186;48.800;9.216;2023-03-30T02:55:37;12.43;;;3.33;;
14205;SDS011;7186;48.800;9.216;2023-03-30T02:58:22;9.43;;;3.20;;
14205;SDS011;7186;48.800;9.216;2023-03-30T03:00:49;8.97;;;2.87;;
14205;SDS011;7186;48.800;9.216;2023-03-30T03:03:18;9.33;;;3.20;;
14205;SDS011;7186;48.800;9.216;2023-03-30T03:05:43;8.30;;;2.67;;
14205;SDS011;7186;48.800;9.216;2023-03-30T03:08:11;12.07;;;3.30;;
14205;SDS011;7186;48.800;9.216;2023-03-30T03:10:36;7.00;;;2.63;;
14205;SDS011;7186;48.800;9.216;2023-03-30T03:13:02;11.23;;;3.20;;
14205;SDS011;7186;48.800;9.216;2023-03-30T03:15:27;14.43;;;3.33;;
14205;SDS011;7186;48.800;9.216;2023-03-30T03:17:52;12.30;;;3.27;;
14205;SDS011;7186;48.800;9.216;2023-03-30T03:20:18;11.47;;;3.17;;
14205;SDS011;7186;48.800;9.216;2023-03-30T03:22:43;16.20;;;3.73;;
14205;SDS011;7186;48.800;9.216;2023-03-30T03:25:08;9.63;;;3.20;;
14205;SDS011;7186;48.800;9.216;2023-03-30T03:27:34;10.60;;;3.00;;
14205;SDS011;7186;48.800;9.216;2023-03-30T03:29:59;11.47;;;3.17;;
14205;SDS011;7186;48.800;9.216;2023-03-30T03:32:24;10.27;;;3.60;;
14205;SDS011;7186;48.800;9.216;2023-03-30T03:34:50;13.43;;;4.47;;
14205;SDS011;7186;48.800;9.216;2023-03-30T03:37:15;13.50;;;3.50;;
14205;SDS011;7186;48.800;9.216;2023-03-30T03:39:40;9.13;;;3.03;;
14205;SDS011;7186;48.800;9.216;2023-03-30T03:42:05;15.30;;;3.53;;
14205;SDS011;7186;48.800;9.216;2023-03-30T03:44:31;11.17;;;3.00;;
14205;SDS011;7186;48.800;9.216;2023-03-30T03:46:56;9.50;;;3.13;;
14205;SDS011;7186;48.800;9.216;2023-03-30T03:49:21;10.97;;;3.27;;
14205;SDS011;7186;48.800;9.216;2023-03-30T03:51:46;14.20;;;3.40;;
14205;SDS011;7186;48.800;9.216;2023-03-30T03:54:12;12.83;;;3.90;;
14205;SDS011;7186;48.800;9.216;2023-03-30T03:56:38;9.90;;;3.07;;
14205;SDS011;7186;48.800;9.216;2023-03-30T03:59:04;15.50;;;3.53;;
14205;SDS011;7186;48.800;9.216;2023-03-30T04:01:29;16.50;;;4.20;;
14205;SDS011;7186;48.800;9.216;2023-03-30T04:03:55;12.87;;;3.53;;
14205;SDS011;7186;48.800;9.216;2023-03-30T04:06:21;14.63;;;3.43;;
14205;SDS011;7186;48.800;9.216;2023-03-30T04:08:47;9.90;;;3.37;;
14205;SDS011;7186;48.800;9.216;2023-03-30T04:11:12;10.90;;;3.40;;
14205;SDS011;7186;48.800;9.216;2023-03-30T04:13:37;10.97;;;3.77;;
14205;SDS011;7186;48.800;9.216;2023-03-30T04:16:03;13.17;;;3.80;;
14205;SDS011;7186;48.800;9.216;2023-03-30T04:18:29;15.70;;;3.97;;
14205;SDS011;7186;48.800;9.216;2023-03-30T04:20:57;12.40;;;4.00;;
14205;SDS011;7186;48.800;9.216;2023-03-30T04:23:26;12.30;;;3.93;;
14205;SDS011;7186;48.800;9.216;2023-03-30T04:25:55;14.67;;;3.80;;
14205;SDS011;7186;48.800;9.216;2023-03-30T04:28:21;13.27;;;5.10;;
14205;SDS011;7186;48.800;9.216;2023-03-30T04:30:48;12.37;;;3.80;;
14205;SDS011;7186;48.800;9.216;2023-03-30T04:33:14;17.50;;;4.10;;
14205;SDS011;7186;48.800;9.216;2023-03-30T04:35:39;12.63;;;3.80;;
14205;SDS011;7186;48.800;9.216;2023-03-30T04:38:05;11.63;;;3.50;;
14205;SDS011;7186;48.800;9.216;2023-03-30T04:40:31;11.87;;;3.90;;
14205;SDS011;7186;48.800;9.216;2023-03-30T04:42:57;13.03;;;4.00;;
14205;SDS011;7186;48.800;9.216;2023-03-30T04:45:27;14.13;;;3.97;;
14205;SDS011;7186;48.800;9.216;2023-03-30T04:47:53;9.93;;;4.77;;
14205;SDS011;7186;48.800;9.216;2023-03-30T04:50:18;13.60;;;4.07;;
14205;SDS011;7186;48.800;9.216;2023-03-30T04:52:43;18.17;;;4.87;;
14205;SDS011;7186;48.800;9.216;2023-03-30T04:55:08;13.60;;;4.43;;
14205;SDS011;7186;48.800;9.216;2023-03-30T04:57:34;14.20;;;4.70;;
14205;SDS011;7186;48.800;9.216;2023-03-30T04:59:59;17.33;;;5.00;;
14205;SDS011;7186;48.800;9.216;2023-03-30T05:02:24;10.73;;;4.43;;
14205;SDS011;7186;48.800;9.216;2023-03-30T05:04:49;16.93;;;4.87;;
14205;SDS011;7186;48.800;9.216;2023-03-30T05:07:15;10.77;;;4.53;;
14205;SDS011;7186;48.800;9.216;2023-03-30T05:09:40;14.23;;;4.00;;
14205;SDS011;7186;48.800;9.216;2023-03-30T05:12:05;18.73;;;4.47;;
14205;SDS011;7186;48.800;9.216;2023-03-30T05:14:30;14.47;;;4.33;;
14205;SDS011;7186;48.800;9.216;2023-03-30T05:16:56;11.87;;;4.33;;
14205;SDS011;7186;48.800;9.216;2023-03-30T05:19:22;12.40;;;4.40;;
14205;SDS011;7186;48.800;9.216;2023-03-30T05:21:47;23.53;;;5.07;;
14205;SDS011;7186;48.800;9.216;2023-03-30T05:24:13;16.77;;;4.73;;
14205;SDS011;7186;48.800;9.216;2023-03-30T05:26:38;10.17;;;4.33;;
14205;SDS011;7186;48.800;9.216;2023-03-30T05:29:03;14.57;;;5.27;;
14205;SDS011;7186;48.800;9.216;2023-03-30T05:31:28;22.20;;;5.60;;
14205;SDS011;7186;48.800;9.216;2023-03-30T05:33:53;19.97;;;5.30;;
14205;SDS011;7186;48.800;9.216;2023-03-30T05:36:19;19.50;;;5.20;;
14205;SDS011;7186;48.800;9.216;2023-03-30T05:38:44;15.93;;;4.97;;
14205;SDS011;7186;48.800;9.216;2023-03-30T05:41:10;12.67;;;4.60;;
14205;SDS011;7186;48.800;9.216;2023-03-30T05:43:35;19.83;;;5.80;;
14205;SDS011;7186;48.800;9.216;2023-03-30T05:46:00;17.90;;;5.40;;
14205;SDS011;7186;48.800;9.216;2023-03-30T05:48:26;16.90;;;5.47;;
14205;SDS011;7186;48.800;9.216;2023-03-30T05:50:51;18.43;;;5.70;;
14205;SDS011;7186;48.800;9.216;2023-03-30T05:53:17;16.60;;;4.80;;
14205;SDS011;7186;48.800;9.216;2023-03-30T05:55:45;15.33;;;4.93;;
14205;SDS011;7186;48.800;9.216;2023-03-30T05:58:11;16.57;;;4.90;;
14205;SDS011;7186;48.800;9.216;2023-03-30T06:00:36;13.30;;;4.27;;
14205;SDS011;7186;48.800;9.216;2023-03-30T06:03:01;16.30;;;4.77;;
14205;SDS011;7186;48.800;9.216;2023-03-30T06:05:28;14.13;;;4.37;;
14205;SDS011;7186;48.800;9.216;2023-03-30T06:07:53;18.40;;;4.30;;
14205;SDS011;7186;48.800;9.216;2023-03-30T06:10:18;19.80;;;4.23;;
14205;SDS011;7186;48.800;9.216;2023-03-30T06:12:43;15.13;;;4.47;;
14205;SDS011;7186;48.800;9.216;2023-03-30T06:15:09;19.53;;;5.27;;
14205;SDS011;7186;48.800;9.216;2023-03-30T06:17:34;12.73;;;4.20;;
14205;SDS011;7186;48.800;9.216;2023-03-30T06:20:01;13.80;;;4.13;;
14205;SDS011;7186;48.800;9.216;2023-03-30T06:22:32;12.97;;;4.33;;
14205;SDS011;7186;48.800;9.216;2023-03-30T06:24:57;20.23;;;4.63;;
14205;SDS011;7186;48.800;9.216;2023-03-30T06:27:23;13.30;;;4.00;;
14205;SDS011;7186;48.800;9.216;2023-03-30T06:29:48;13.60;;;4.17;;
14205;SDS011;7186;48.800;9.216;2023-03-30T06:32:13;15.60;;;4.67;;
14205;SDS011;7186;48.800;9.216;2023-03-30T06:34:38;16.57;;;3.80;;
14205;SDS011;7186;48.800;9.216;2023-03-30T06:37:05;14.27;;;4.13;;
14205;SDS011;7186;48.800;9.216;2023-03-30T06:39:30;16.57;;;4.97;;
14205;SDS011;7186;48.800;9.216;2023-03-30T06:41:56;16.27;;;3.83;;
14205;SDS011;7186;48.800;9.216;2023-03-30T06:44:21;14.60;;;4.07;;
14205;SDS011;7186;48.800;9.216;2023-03-30T06:46:46;15.30;;;4.60;;
14205;SDS011;7186;48.800;9.216;2023-03-30T06:49:11;14.30;;;3.77;;
14205;SDS011;7186;48.800;9.216;2023-03-30T06:51:37;14.83;;;4.50;;
14205;SDS011;7186;48.800;9.216;2023-03-30T06:54:02;15.87;;;4.00;;
14205;SDS011;7186;48.800;9.216;2023-03-30T06:56:28;14.53;;;4.23;;
14205;SDS011;7186;48.800;9.216;2023-03-30T06:58:53;12.70;;;3.50;;
14205;SDS011;7186;48.800;9.216;2023-03-30T07:01:19;10.53;;;3.40;;
14205;SDS011;7186;48.800;9.216;2023-03-30T07:03:44;14.70;;;3.80;;
14205;SDS011;7186;48.800;9.216;2023-03-30T07:06:10;12.77;;;3.50;;
14205;SDS011;7186;48.800;9.216;2023-03-30T07:08:35;14.23;;;3.43;;
14205;SDS011;7186;48.800;9.216;2023-03-30T07:11:01;13.13;;;3.43;;
14205;SDS011;7186;48.800;9.216;2023-03-30T07:13:27;10.07;;;3.37;;
14205;SDS011;7186;48.800;9.216;2023-03-30T07:15:52;17.50;;;4.13;;
14205;SDS011;7186;48.800;9.216;2023-03-30T07:18:19;11.87;;;3.87;;
14205;SDS011;7186;48.800;9.216;2023-03-30T07:20:44;12.60;;;3.93;;
14205;SDS011;7186;48.800;9.216;2023-03-30T07:23:10;13.17;;;3.53;;
14205;SDS011;7186;48.800;9.216;2023-03-30T07:25:36;13.63;;;4.07;;
14205;SDS011;7186;48.800;9.216;2023-03-30T07:28:02;14.07;;;5.10;;
14205;SDS011;7186;48.800;9.216;2023-03-30T07:30:30;14.00;;;4.03;;
14205;SDS011;7186;48.800;9.216;2023-03-30T07:32:55;13.27;;;3.40;;
14205;SDS011;7186;48.800;9.216;2023-03-30T07:35:20;10.37;;;3.67;;
14205;SDS011;7186;48.800;9.216;2023-03-30T07:37:45;10.30;;;3.50;;
14205;SDS011;7186;48.800;9.216;2023-03-30T07:40:11;11.13;;;3.60;;
14205;SDS011;7186;48.800;9.216;2023-03-30T07:42:36;8.30;;;3.23;;
14205;SDS011;7186;48.800;9.216;2023-03-30T07:45:02;9.10;;;3.27;;
14205;SDS011;7186;48.800;9.216;2023-03-30T07:47:28;12.13;;;3.83;;
14205;SDS011;7186;48.800;9.216;2023-03-30T07:49:53;9.40;;;3.80;;
14205;SDS011;7186;48.800;9.216;2023-03-30T07:52:18;13.90;;;4.17;;
14205;SDS011;7186;48.800;9.216;2023-03-30T07:54:43;10.67;;;4.73;;
14205;SDS011;7186;48.800;9.216;2023-03-30T07:57:10;10.07;;;3.70;;
14205;SDS011;7186;48.800;9.216;2023-03-30T07:59:35;13.00;;;4.33;;
14205;SDS011;7186;48.800;9.216;2023-03-30T08:02:01;13.70;;;4.30;;
14205;SDS011;7186;48.800;9.216;2023-03-30T08:04:26;8.23;;;3.47;;
14205;SDS011;7186;48.800;9.216;2023-03-30T08:06:51;10.33;;;4.10;;
14205;SDS011;7186;48.800;9.216;2023-03-30T08:09:17;7.30;;;3.43;;
14205;SDS011;7186;48.800;9.216;2023-03-30T08:11:42;7.57;;;3.40;;
14205;SDS011;7186;48.800;9.216;2023-03-30T08:14:08;9.53;;;3.57;;
14205;SDS011;7186;48.800;9.216;2023-03-30T08:16:33;7.27;;;2.97;;
14205;SDS011;7186;48.800;9.216;2023-03-30T08:18:58;11.27;;;4.13;;
14205;SDS011;7186;48.800;9.216;2023-03-30T08:21:23;7.10;;;3.67;;
14205;SDS011;7186;48.800;9.216;2023-03-30T08:23:53;13.37;;;4.27;;
14205;SDS011;7186;48.800;9.216;2023-03-30T08:26:20;13.83;;;4.23;;
14205;SDS011;7186;48.800;9.216;2023-03-30T08:28:45;11.97;;;3.83;;
14205;SDS011;7186;48.800;9.216;2023-03-30T08:31:10;9.27;;;4.43;;
14205;SDS011;7186;48.800;9.216;2023-03-30T08:33:35;10.60;;;3.83;;
14205;SDS011;7186;48.800;9.216;2023-03-30T08:36:01;8.57;;;3.60;;
14205;SDS011;7186;48.800;9.216;2023-03-30T08:38:26;8.90;;;3.93;;
14205;SDS011;7186;48.800;9.216;2023-03-30T08:40:51;9.63;;;3.90;;
14205;SDS011;7186;48.800;9.216;2023-03-30T08:43:35;9.83;;;4.43;;
14205;SDS011;7186;48.800;9.216;2023-03-30T08:46:09;12.60;;;4.60;;
14205;SDS011;7186;48.800;9.216;2023-03-30T08:48:35;7.10;;;4.13;;
14205;SDS011;7186;48.800;9.216;2023-03-30T08:51:23;10.30;;;4.50;;
14205;SDS011;7186;48.800;9.216;2023-03-30T08:53:54;11.10;;;3.77;;
14205;SDS011;7186;48.800;9.216;2023-03-30T08:56:24;16.70;;;5.40;;
14205;SDS011;7186;48.800;9.216;2023-03-30T09:09:10;12.13;;;3.60;;
14205;SDS011;7186;48.800;9.216;2023-03-30T09:11:36;10.27;;;3.30;;
14205;SDS011;7186;48.800;9.216;2023-03-30T09:14:03;6.70;;;3.37;;
14205;SDS011;7186;48.800;9.216;2023-03-30T09:16:34;7.00;;;3.80;;
14205;SDS011;7186;48.800;9.216;2023-03-30T09:19:02;10.17;;;4.27;;
14205;SDS011;7186;48.800;9.216;2023-03-30T09:21:30;9.47;;;4.43;;
14205;SDS011;7186;48.800;9.216;2023-03-30T09:23:56;9.63;;;4.20;;
14205;SDS011;7186;48.800;9.216;2023-03-30T09:26:26;11.27;;;4.70;;
14205;SDS011;7186;48.800;9.216;2023-03-30T09:29:00;11.70;;;3.90;;
14205;SDS011;7186;48.800;9.216;2023-03-30T09:31:40;11.20;;;3.90;;
14205;SDS011;7186;48.800;9.216;2023-03-30T09:36:47;10.03;;;4.37;;
14205;SDS011;7186;48.800;9.216;2023-03-30T09:39:17;9.97;;;3.93;;
14205;SDS011;7186;48.800;9.216;2023-03-30T09:41:48;8.87;;;3.87;;
14205;SDS011;7186;48.800;9.216;2023-03-30T09:44:18;11.20;;;4.00;;
14205;SDS011;7186;48.800;9.216;2023-03-30T09:46:45;9.37;;;3.63;;
14205;SDS011;7186;48.800;9.216;2023-03-30T09:49:14;10.23;;;3.87;;
14205;SDS011;7186;48.800;9.216;2023-03-30T09:54:23;12.70;;;5.63;;
14205;SDS011;7186;48.800;9.216;2023-03-30T09:56:50;12.40;;;4.90;;
14205;SDS011;7186;48.800;9.216;2023-03-30T09:59:19;13.83;;;4.30;;
14205;SDS011;7186;48.800;9.216;2023-03-30T10:01:45;6.70;;;3.70;;
14205;SDS011;7186;48.800;9.216;2023-03-30T10:04:10;8.13;;;4.20;;
14205;SDS011;7186;48.800;9.216;2023-03-30T10:06:46;5.30;;;2.93;;
14205;SDS011;7186;48.800;9.216;2023-03-30T10:09:12;7.37;;;2.90;;
14205;SDS011;7186;48.800;9.216;2023-03-30T10:14:10;4.73;;;2.87;;
14205;SDS011;7186;48.800;9.216;2023-03-30T10:16:35;7.60;;;2.80;;
14205;SDS011;7186;48.800;9.216;2023-03-30T10:19:02;6.90;;;3.03;;
14205;SDS011;7186;48.800;9.216;2023-03-30T10:21:35;5.17;;;2.80;;
14205;SDS011;7186;48.800;9.216;2023-03-30T10:24:05;8.37;;;2.90;;
14205;SDS011;7186;48.800;9.216;2023-03-30T10:26:34;3.77;;;2.70;;
14205;SDS011;7186;48.800;9.216;2023-03-30T10:29:01;6.77;;;3.03;;
14205;SDS011;7186;48.800;9.216;2023-03-30T10:31:28;7.77;;;3.43;;
14205;SDS011;7186;48.800;9.216;2023-03-30T10:33:56;4.67;;;3.10;;
14205;SDS011;7186;48.800;9.216;2023-03-30T10:36:24;5.97;;;2.83;;
14205;SDS011;7186;48.800;9.216;2023-03-30T10:38:51;6.70;;;2.90;;
14205;SDS011;7186;48.800;9.216;2023-03-30T10:41:21;5.13;;;2.83;;
14205;SDS011;7186;48.800;9.216;2023-03-30T10:43:46;3.20;;;2.90;;
14205;SDS011;7186;48.800;9.216;2023-03-30T10:46:13;3.03;;;2.63;;
14205;SDS011;7186;48.800;9.216;2023-03-30T10:51:51;7.77;;;3.27;;
14205;SDS011;7186;48.800;9.216;2023-03-30T10:54:03;3.50;;;2.90;;
14205;SDS011;7186;48.800;9.216;2023-03-30T10:56:37;3.57;;;2.83;;
14205;SDS011;7186;48.800;9.216;2023-03-30T10:59:21;5.20;;;2.90;;
14205;SDS011;7186;48.800;9.216;2023-03-30T11:04:25;6.73;;;2.80;;
14205;SDS011;7186;48.800;9.216;2023-03-30T11:06:53;3.77;;;2.73;;
14205;SDS011;7186;48.800;9.216;2023-03-30T11:09:24;8.43;;;2.93;;
14205;SDS011;7186;48.800;9.216;2023-03-30T11:11:53;5.40;;;3.00;;
14205;SDS011;7186;48.800;9.216;2023-03-30T11:14:22;6.27;;;2.87;;
14205;SDS011;7186;48.800;9.216;2023-03-30T11:17:01;8.33;;;3.20;;
14205;SDS011;7186;48.800;9.216;2023-03-30T11:19:41;5.70;;;2.73;;
14205;SDS011;7186;48.800;9.216;2023-03-30T11:22:29;5.90;;;3.07;;
14205;SDS011;7186;48.800;9.216;2023-03-30T11:24:57;6.27;;;2.80;;
14205;SDS011;7186;48.800;9.216;2023-03-30T11:29:50;6.60;;;3.10;;
14205;SDS011;7186;48.800;9.216;2023-03-30T11:40:21;6.67;;;3.30;;
14205;SDS011;7186;48.800;9.216;2023-03-30T11:42:48;4.40;;;2.77;;
14205;SDS011;7186;48.800;9.216;2023-03-30T11:51:14;6.27;;;2.50;;
14205;SDS011;7186;48.800;9.216;2023-03-30T11:56:22;7.93;;;2.80;;
14205;SDS011;7186;48.800;9.216;2023-03-30T12:01:25;8.00;;;3.27;;
14205;SDS011;7186;48.800;9.216;2023-03-30T12:03:55;5.60;;;2.73;;
14205;SDS011;7186;48.800;9.216;2023-03-30T12:06:32;6.83;;;3.57;;
14205;SDS011;7186;48.800;9.216;2023-03-30T12:09:03;7.73;;;3.90;;
14205;SDS011;7186;48.800;9.216;2023-03-30T12:13:55;4.53;;;2.80;;
14205;SDS011;7186;48.800;9.216;2023-03-30T12:16:29;7.37;;;3.03;;
14205;SDS011;7186;48.800;9.216;2023-03-30T12:26:30;14.80;;;2.73;;
14205;SDS011;7186;48.800;9.216;2023-03-30T12:34:14;6.97;;;2.97;;
14205;SDS011;7186;48.800;9.216;2023-03-30T12:36:40;6.60;;;3.03;;
14205;SDS011;7186;48.800;9.216;2023-03-30T12:39:12;8.73;;;3.20;;
14205;SDS011;7186;48.800;9.216;2023-03-30T12:41:41;5.17;;;2.97;;
14205;SDS011;7186;48.800;9.216;2023-03-30T12:49:13;7.80;;;3.43;;
14205;SDS011;7186;48.800;9.216;2023-03-30T12:56:54;7.97;;;3.10;;
14205;SDS011;7186;48.800;9.216;2023-03-30T12:59:32;8.90;;;3.17;;
14205;SDS011;7186;48.800;9.216;2023-03-30T13:04:45;7.20;;;3.00;;
14205;SDS011;7186;48.800;9.216;2023-03-30T13:07:13;7.87;;;3.00;;
14205;SDS011;7186;48.800;9.216;2023-03-30T13:09:59;6.73;;;2.90;;
14205;SDS011;7186;48.800;9.216;2023-03-30T13:12:32;7.77;;;3.13;;
14205;SDS011;7186;48.800;9.216;2023-03-30T13:17:23;6.87;;;3.33;;
14205;SDS011;7186;48.800;9.216;2023-03-30T13:20:09;4.73;;;2.40;;
14205;SDS011;7186;48.800;9.216;2023-03-30T13:22:37;4.87;;;2.30;;
14205;SDS011;7186;48.800;9.216;2023-03-30T13:29:54;5.83;;;2.40;;
14205;SDS011;7186;48.800;9.216;2023-03-30T13:32:29;5.23;;;2.67;;
14205;SDS011;7186;48.800;9.216;2023-03-30T13:47:28;5.80;;;2.60;;
14205;SDS011;7186;48.800;9.216;2023-03-30T13:49:57;5.10;;;2.50;;
14205;SDS011;7186;48.800;9.216;2023-03-30T13:54:57;6.70;;;2.60;;
14205;SDS011;7186;48.800;9.216;2023-03-30T13:57:33;5.47;;;2.80;;
14205;SDS011;7186;48.800;9.216;2023-03-30T14:00:16;6.60;;;3.00;;
14205;SDS011;7186;48.800;9.216;2023-03-30T14:02:45;5.47;;;2.97;;
14205;SDS011;7186;48.800;9.216;2023-03-30T14:05:15;6.57;;;2.80;;
14205;SDS011;7186;48.800;9.216;2023-03-30T14:07:44;7.23;;;3.03;;
14205;SDS011;7186;48.800;9.216;2023-03-30T14:10:12;6.03;;;2.23;;
14205;SDS011;7186;48.800;9.216;2023-03-30T14:12:38;8.13;;;2.20;;
14205;SDS011;7186;48.800;9.216;2023-03-30T14:15:14;3.77;;;2.30;;
14205;SDS011;7186;48.800;9.216;2023-03-30T14:17:39;6.70;;;2.70;;
14205;SDS011;7186;48.800;9.216;2023-03-30T14:22:31;3.53;;;2.30;;
14205;SDS011;7186;48.800;9.216;2023-03-30T14:25:00;8.30;;;2.50;;
14205;SDS011;7186;48.800;9.216;2023-03-30T14:27:35;4.03;;;2.20;;
14205;SDS011;7186;48.800;9.216;2023-03-30T14:30:05;7.30;;;2.80;;
14205;SDS011;7186;48.800;9.216;2023-03-30T14:32:36;4.10;;;2.23;;
14205;SDS011;7186;48.800;9.216;2023-03-30T14:35:03;4.57;;;2.40;;
14205;SDS011;7186;48.800;9.216;2023-03-30T14:37:29;3.27;;;2.07;;
14205;SDS011;7186;48.800;9.216;2023-03-30T14:39:55;4.37;;;2.13;;
14205;SDS011;7186;48.800;9.216;2023-03-30T14:42:23;3.07;;;2.07;;
14205;SDS011;7186;48.800;9.216;2023-03-30T14:44:49;6.03;;;2.40;;
14205;SDS011;7186;48.800;9.216;2023-03-30T14:47:17;3.43;;;1.97;;
14205;SDS011;7186;48.800;9.216;2023-03-30T14:49:43;4.13;;;2.20;;
14205;SDS011;7186;48.800;9.216;2023-03-30T14:52:13;11.13;;;2.13;;
14205;SDS011;7186;48.800;9.216;2023-03-30T14:54:38;4.20;;;2.17;;
14205;SDS011;7186;48.800;9.216;2023-03-30T14:57:04;2.97;;;2.13;;
14205;SDS011;7186;48.800;9.216;2023-03-30T14:59:32;3.80;;;2.13;;
14205;SDS011;7186;48.800;9.216;2023-03-30T15:01:58;3.37;;;1.70;;
14205;SDS011;7186;48.800;9.216;2023-03-30T15:04:26;3.63;;;1.80;;
14205;SDS011;7186;48.800;9.216;2023-03-30T15:06:52;5.07;;;2.00;;
14205;SDS011;7186;48.800;9.216;2023-03-30T15:09:19;2.33;;;1.63;;
14205;SDS011;7186;48.800;9.216;2023-03-30T15:11:46;4.23;;;1.67;;
14205;SDS011;7186;48.800;9.216;2023-03-30T15:14:13;2.57;;;1.60;;
14205;SDS011;7186;48.800;9.216;2023-03-30T15:16:39;3.00;;;1.50;;
14205;SDS011;7186;48.800;9.216;2023-03-30T15:19:49;4.33;;;1.83;;
14205;SDS011;7186;48.800;9.216;2023-03-30T15:21:55;4.70;;;2.00;;
14205;SDS011;7186;48.800;9.216;2023-03-30T15:24:22;4.43;;;2.00;;
14205;SDS011;7186;48.800;9.216;2023-03-30T15:26:50;3.37;;;1.80;;
14205;SDS011;7186;48.800;9.216;2023-03-30T15:29:16;2.77;;;1.83;;
14205;SDS011;7186;48.800;9.216;2023-03-30T15:31:42;5.97;;;1.80;;
14205;SDS011;7186;48.800;9.216;2023-03-30T15:34:13;4.10;;;2.17;;
14205;SDS011;7186;48.800;9.216;2023-03-30T15:36:38;5.80;;;2.40;;
14205;SDS011;7186;48.800;9.216;2023-03-30T15:39:18;5.17;;;2.27;;
14205;SDS011;7186;48.800;9.216;2023-03-30T15:44:09;3.20;;;2.10;;
14205;SDS011;7186;48.800;9.216;2023-03-30T15:46:35;5.33;;;2.10;;
14205;SDS011;7186;48.800;9.216;2023-03-30T15:49:01;3.23;;;1.97;;
14205;SDS011;7186;48.800;9.216;2023-03-30T15:56:23;5.37;;;2.27;;
14205;SDS011;7186;48.800;9.216;2023-03-30T15:58:51;5.93;;;2.30;;
14205;SDS011;7186;48.800;9.216;2023-03-30T16:01:16;3.20;;;2.03;;
14205;SDS011;7186;48.800;9.216;2023-03-30T16:03:49;6.63;;;2.03;;
14205;SDS011;7186;48.800;9.216;2023-03-30T16:06:15;5.57;;;1.93;;
14205;SDS011;7186;48.800;9.216;2023-03-30T16:08:40;3.93;;;1.90;;
14205;SDS011;7186;48.800;9.216;2023-03-30T16:11:07;3.67;;;2.10;;
14205;SDS011;7186;48.800;9.216;2023-03-30T16:13:37;3.63;;;1.70;;
14205;SDS011;7186;48.800;9.216;2023-03-30T16:16:02;4.93;;;2.17;;
14205;SDS011;7186;48.800;9.216;2023-03-30T16:18:28;1.33;;;1.20;;
14205;SDS011;7186;48.800;9.216;2023-03-30T16:20:54;1.30;;;1.20;;
14205;SDS011;7186;48.800;9.216;2023-03-30T16:23:20;2.90;;;1.37;;
14205;SDS011;7186;48.800;9.216;2023-03-30T16:25:45;4.13;;;1.20;;
14205;SDS011;7186;48.800;9.216;2023-03-30T16:28:13;1.73;;;1.13;;
14205;SDS011;7186;48.800;9.216;2023-03-30T16:30:39;2.73;;;1.20;;
14205;SDS011;7186;48.800;9.216;2023-03-30T16:33:05;2.87;;;1.10;;
14205;SDS011;7186;48.800;9.216;2023-03-30T16:35:31;2.63;;;1.10;;
14205;SDS011;7186;48.800;9.216;2023-03-30T16:37:57;3.67;;;1.30;;
14205;SDS011;7186;48.800;9.216;2023-03-30T16:42:50;2.40;;;1.13;;
14205;SDS011;7186;48.800;9.216;2023-03-30T16:45:15;2.43;;;1.10;;
14205;SDS011;7186;48.800;9.216;2023-03-30T16:47:41;2.13;;;1.77;;
14205;SDS011;7186;48.800;9.216;2023-03-30T16:50:49;2.70;;;1.30;;
14205;SDS011;7186;48.800;9.216;2023-03-30T16:52:55;2.90;;;1.00;;
14205;SDS011;7186;48.800;9.216;2023-03-30T16:55:20;4.63;;;1.37;;
14205;SDS011;7186;48.800;9.216;2023-03-30T16:57:45;4.43;;;1.57;;
14205;SDS011;7186;48.800;9.216;2023-03-30T17:00:15;2.50;;;1.43;;
14205;SDS011;7186;48.800;9.216;2023-03-30T17:02:40;4.07;;;1.20;;
14205;SDS011;7186;48.800;9.216;2023-03-30T17:05:06;4.33;;;1.60;;
14205;SDS011;7186;48.800;9.216;2023-03-30T17:07:31;2.30;;;1.10;;
14205;SDS011;7186;48.800;9.216;2023-03-30T17:09:58;1.93;;;1.40;;
14205;SDS011;7186;48.800;9.216;2023-03-30T17:12:23;2.87;;;1.37;;
14205;SDS011;7186;48.800;9.216;2023-03-30T17:14:49;3.13;;;1.50;;
14205;SDS011;7186;48.800;9.216;2023-03-30T17:17:14;4.33;;;1.60;;
14205;SDS011;7186;48.800;9.216;2023-03-30T17:19:40;4.07;;;1.50;;
14205;SDS011;7186;48.800;9.216;2023-03-30T17:22:05;4.60;;;1.30;;